sensor_id;sensor_type;location;lat;lon;timestamp;P1;durP1;ratioP1;P2;durP2;ratioP2
31308;SDS011;17936;52.446;10.840;2023-02-01T00:01:53;19.05;;;2.17;;
31308;SDS011;17936;52.446;10.840;2023-02-01T00:04:18;15.98;;;3.05;;
31308;SDS011;17936;52.446;10.840;2023-02-01T00:06:44;28.13;;;3.40;;
31308;SDS011;17936;52.446;10.840;2023-02-01T00:09:09;18.13;;;2.95;;
31308;SDS011;17936;52.446;10.840;2023-02-01T00:11:35;19.13;;;3.20;;
31308;SDS011;17936;52.446;10.840;2023-02-01T00:14:00;26.23;;;2.92;;
31308;SDS011;17936;52.446;10.840;2023-02-01T00:16:27;19.83;;;2.72;;
31308;SDS011;17936;52.446;10.840;2023-02-01T00:18:58;19.65;;;2.47;;
31308;SDS011;17936;52.446;10.840;2023-02-01T00:21:29;15.90;;;2.88;;
31308;SDS011;17936;52.446;10.840;2023-02-01T00:23:56;15.82;;;3.13;;
31308;SDS011;17936;52.446;10.840;2023-02-01T00:26:23;26.80;;;3.08;;
31308;SDS011;17936;52.446;10.840;2023-02-01T00:28:54;26.98;;;2.83;;
31308;SDS011;17936;52.446;10.840;2023-02-01T00:31:20;21.83;;;2.75;;
31308;SDS011;17936;52.446;10.840;2023-02-01T00:33:49;15.63;;;2.75;;
31308;SDS011;17936;52.446;10.840;2023-02-01T00:36:14;19.60;;;2.95;;
31308;SDS011;17936;52.446;10.840;2023-02-01T00:38:40;20.02;;;3.83;;
31308;SDS011;17936;52.446;10.840;2023-02-01T00:41:07;20.88;;;2.95;;
31308;SDS011;17936;52.446;10.840;2023-02-01T00:43:38;24.27;;;2.85;;
31308;SDS011;17936;52.446;10.840;2023-02-01T00:46:04;18.83;;;2.55;;
31308;SDS011;17936;52.446;10.840;2023-02-01T00:48:30;16.90;;;2.67;;
31308;SDS011;17936;52.446;10.840;2023-02-01T00:50:59;26.23;;;4.25;;
31308;SDS011;17936;52.446;10.840;2023-02-01T00:53:32;24.98;;;3.10;;
31308;SDS011;17936;52.446;10.840;2023-02-01T00:55:58;17.60;;;3.25;;
31308;SDS011;17936;52.446;10.840;2023-02-01T00:58:24;28.60;;;3.63;;
31308;SDS011;17936;52.446;10.840;2023-02-01T01:01:00;21.73;;;2.95;;
31308;SDS011;17936;52.446;10.840;2023-02-01T01:03:25;19.30;;;3.20;;
31308;SDS011;17936;52.446;10.840;2023-02-01T01:05:51;25.55;;;2.95;;
31308;SDS011;17936;52.446;10.840;2023-02-01T01:08:21;21.67;;;3.20;;
31308;SDS011;17936;52.446;10.840;2023-02-01T01:10:46;15.75;;;3.03;;
31308;SDS011;17936;52.446;10.840;2023-02-01T01:13:12;25.20;;;3.33;;
31308;SDS011;17936;52.446;10.840;2023-02-01T01:15:38;12.43;;;2.53;;
31308;SDS011;17936;52.446;10.840;2023-02-01T01:18:05;23.67;;;3.30;;
31308;SDS011;17936;52.446;10.840;2023-02-01T01:20:31;20.92;;;3.42;;
31308;SDS011;17936;52.446;10.840;2023-02-01T01:23:00;20.67;;;2.72;;
31308;SDS011;17936;52.446;10.840;2023-02-01T01:25:25;26.20;;;3.28;;
31308;SDS011;17936;52.446;10.840;2023-02-01T01:27:51;15.10;;;2.63;;
31308;SDS011;17936;52.446;10.840;2023-02-01T01:30:16;27.75;;;3.70;;
31308;SDS011;17936;52.446;10.840;2023-02-01T01:32:42;27.33;;;3.15;;
31308;SDS011;17936;52.446;10.840;2023-02-01T01:35:09;20.40;;;3.25;;
31308;SDS011;17936;52.446;10.840;2023-02-01T01:37:35;20.65;;;3.53;;
31308;SDS011;17936;52.446;10.840;2023-02-01T01:40:01;15.40;;;2.80;;
31308;SDS011;17936;52.446;10.840;2023-02-01T01:42:28;15.52;;;2.30;;
31308;SDS011;17936;52.446;10.840;2023-02-01T01:47:32;23.52;;;3.85;;
31308;SDS011;17936;52.446;10.840;2023-02-01T01:50:14;24.13;;;3.22;;
31308;SDS011;17936;52.446;10.840;2023-02-01T01:52:43;22.67;;;3.33;;
31308;SDS011;17936;52.446;10.840;2023-02-01T01:55:11;17.40;;;2.85;;
31308;SDS011;17936;52.446;10.840;2023-02-01T01:57:39;23.73;;;3.38;;
31308;SDS011;17936;52.446;10.840;2023-02-01T02:00:13;20.73;;;2.88;;
31308;SDS011;17936;52.446;10.840;2023-02-01T02:02:42;23.35;;;3.40;;
31308;SDS011;17936;52.446;10.840;2023-02-01T02:05:09;22.92;;;3.75;;
31308;SDS011;17936;52.446;10.840;2023-02-01T02:07:38;28.52;;;2.88;;
31308;SDS011;17936;52.446;10.840;2023-02-01T02:10:07;18.38;;;3.63;;
31308;SDS011;17936;52.446;10.840;2023-02-01T02:12:35;19.50;;;3.17;;
31308;SDS011;17936;52.446;10.840;2023-02-01T02:15:03;25.05;;;3.05;;
31308;SDS011;17936;52.446;10.840;2023-02-01T02:17:36;29.13;;;4.00;;
31308;SDS011;17936;52.446;10.840;2023-02-01T02:33:58;17.83;;;2.22;;
31308;SDS011;17936;52.446;10.840;2023-02-01T02:42:17;18.85;;;3.03;;
31308;SDS011;17936;52.446;10.840;2023-02-01T02:45:54;19.50;;;3.00;;
31308;SDS011;17936;52.446;10.840;2023-02-01T02:48:28;21.77;;;3.50;;
31308;SDS011;17936;52.446;10.840;2023-02-01T02:54:10;17.02;;;3.00;;
31308;SDS011;17936;52.446;10.840;2023-02-01T02:57:07;9.38;;;1.92;;
31308;SDS011;17936;52.446;10.840;2023-02-01T02:59:54;21.38;;;2.80;;
31308;SDS011;17936;52.446;10.840;2023-02-01T03:02:41;18.13;;;2.83;;
31308;SDS011;17936;52.446;10.840;2023-02-01T03:05:31;19.00;;;2.80;;
31308;SDS011;17936;52.446;10.840;2023-02-01T03:08:02;24.90;;;3.22;;
31308;SDS011;17936;52.446;10.840;2023-02-01T03:13:02;23.48;;;3.03;;
31308;SDS011;17936;52.446;10.840;2023-02-01T03:18:33;19.45;;;2.97;;
31308;SDS011;17936;52.446;10.840;2023-02-01T03:21:23;22.48;;;3.58;;
31308;SDS011;17936;52.446;10.840;2023-02-01T03:23:52;15.95;;;2.58;;
31308;SDS011;17936;52.446;10.840;2023-02-01T03:26:20;21.85;;;2.60;;
31308;SDS011;17936;52.446;10.840;2023-02-01T03:28:52;21.67;;;3.38;;
31308;SDS011;17936;52.446;10.840;2023-02-01T03:31:21;20.55;;;2.72;;
31308;SDS011;17936;52.446;10.840;2023-02-01T03:33:47;12.25;;;1.98;;
31308;SDS011;17936;52.446;10.840;2023-02-01T03:36:35;20.05;;;2.75;;
31308;SDS011;17936;52.446;10.840;2023-02-01T03:39:28;21.17;;;2.58;;
31308;SDS011;17936;52.446;10.840;2023-02-01T03:42:18;19.42;;;3.05;;
31308;SDS011;17936;52.446;10.840;2023-02-01T03:44:53;16.00;;;2.33;;
31308;SDS011;17936;52.446;10.840;2023-02-01T03:47:27;19.17;;;2.80;;
31308;SDS011;17936;52.446;10.840;2023-02-01T03:49:57;23.17;;;3.72;;
31308;SDS011;17936;52.446;10.840;2023-02-01T03:52:28;24.23;;;2.70;;
31308;SDS011;17936;52.446;10.840;2023-02-01T03:55:01;28.15;;;3.53;;
31308;SDS011;17936;52.446;10.840;2023-02-01T03:57:29;28.33;;;4.00;;
31308;SDS011;17936;52.446;10.840;2023-02-01T04:00:04;18.33;;;2.55;;
31308;SDS011;17936;52.446;10.840;2023-02-01T04:02:36;23.98;;;2.47;;
31308;SDS011;17936;52.446;10.840;2023-02-01T04:05:02;16.45;;;3.30;;
31308;SDS011;17936;52.446;10.840;2023-02-01T04:07:27;16.77;;;3.67;;
31308;SDS011;17936;52.446;10.840;2023-02-01T04:09:53;22.55;;;3.10;;
31308;SDS011;17936;52.446;10.840;2023-02-01T04:12:18;20.10;;;4.15;;
31308;SDS011;17936;52.446;10.840;2023-02-01T04:14:44;20.33;;;2.78;;
31308;SDS011;17936;52.446;10.840;2023-02-01T04:17:09;17.65;;;3.30;;
31308;SDS011;17936;52.446;10.840;2023-02-01T04:19:35;18.30;;;3.53;;
31308;SDS011;17936;52.446;10.840;2023-02-01T04:22:00;14.23;;;2.80;;
31308;SDS011;17936;52.446;10.840;2023-02-01T04:24:26;18.65;;;3.17;;
31308;SDS011;17936;52.446;10.840;2023-02-01T04:26:51;23.27;;;3.75;;
31308;SDS011;17936;52.446;10.840;2023-02-01T04:29:17;17.88;;;3.05;;
31308;SDS011;17936;52.446;10.840;2023-02-01T04:31:42;18.40;;;3.33;;
31308;SDS011;17936;52.446;10.840;2023-02-01T04:34:08;20.17;;;3.75;;
31308;SDS011;17936;52.446;10.840;2023-02-01T04:36:33;24.08;;;2.63;;
31308;SDS011;17936;52.446;10.840;2023-02-01T04:38:59;26.98;;;3.95;;
31308;SDS011;17936;52.446;10.840;2023-02-01T04:41:24;22.65;;;3.40;;
31308;SDS011;17936;52.446;10.840;2023-02-01T04:43:50;20.40;;;3.28;;
31308;SDS011;17936;52.446;10.840;2023-02-01T04:46:17;18.50;;;2.60;;
31308;SDS011;17936;52.446;10.840;2023-02-01T04:48:43;9.00;;;2.53;;
31308;SDS011;17936;52.446;10.840;2023-02-01T04:51:09;22.02;;;3.42;;
31308;SDS011;17936;52.446;10.840;2023-02-01T04:53:35;17.65;;;3.65;;
31308;SDS011;17936;52.446;10.840;2023-02-01T04:56:00;16.63;;;3.88;;
31308;SDS011;17936;52.446;10.840;2023-02-01T04:58:26;21.85;;;3.50;;
31308;SDS011;17936;52.446;10.840;2023-02-01T05:00:51;19.67;;;3.08;;
31308;SDS011;17936;52.446;10.840;2023-02-01T05:03:17;17.85;;;2.88;;
31308;SDS011;17936;52.446;10.840;2023-02-01T05:05:43;23.25;;;3.38;;
31308;SDS011;17936;52.446;10.840;2023-02-01T05:08:08;24.17;;;3.75;;
31308;SDS011;17936;52.446;10.840;2023-02-01T05:10:34;18.92;;;2.65;;
31308;SDS011;17936;52.446;10.840;2023-02-01T05:12:59;20.13;;;3.17;;
31308;SDS011;17936;52.446;10.840;2023-02-01T05:15:44;26.00;;;3.22;;
31308;SDS011;17936;52.446;10.840;2023-02-01T05:18:11;23.63;;;3.80;;
31308;SDS011;17936;52.446;10.840;2023-02-01T05:20:37;20.80;;;4.40;;
31308;SDS011;17936;52.446;10.840;2023-02-01T05:23:02;20.00;;;2.75;;
31308;SDS011;17936;52.446;10.840;2023-02-01T05:25:28;14.57;;;2.90;;
31308;SDS011;17936;52.446;10.840;2023-02-01T05:27:53;27.23;;;3.10;;
31308;SDS011;17936;52.446;10.840;2023-02-01T05:30:19;26.30;;;3.53;;
31308;SDS011;17936;52.446;10.840;2023-02-01T05:32:44;23.27;;;3.58;;
31308;SDS011;17936;52.446;10.840;2023-02-01T05:35:10;21.15;;;3.03;;
31308;SDS011;17936;52.446;10.840;2023-02-01T05:37:35;19.98;;;3.47;;
31308;SDS011;17936;52.446;10.840;2023-02-01T05:40:01;19.13;;;3.63;;
31308;SDS011;17936;52.446;10.840;2023-02-01T05:42:26;19.27;;;3.47;;
31308;SDS011;17936;52.446;10.840;2023-02-01T05:44:52;15.85;;;3.33;;
31308;SDS011;17936;52.446;10.840;2023-02-01T05:47:17;10.77;;;2.58;;
31308;SDS011;17936;52.446;10.840;2023-02-01T05:49:43;21.73;;;3.30;;
31308;SDS011;17936;52.446;10.840;2023-02-01T05:52:08;19.10;;;3.28;;
31308;SDS011;17936;52.446;10.840;2023-02-01T05:54:34;16.27;;;3.15;;
31308;SDS011;17936;52.446;10.840;2023-02-01T05:56:59;14.38;;;3.22;;
31308;SDS011;17936;52.446;10.840;2023-02-01T05:59:25;19.45;;;3.28;;
31308;SDS011;17936;52.446;10.840;2023-02-01T06:01:50;12.98;;;2.63;;
31308;SDS011;17936;52.446;10.840;2023-02-01T06:04:16;22.90;;;3.42;;
31308;SDS011;17936;52.446;10.840;2023-02-01T06:06:41;15.50;;;3.15;;
31308;SDS011;17936;52.446;10.840;2023-02-01T06:09:07;12.57;;;3.28;;
31308;SDS011;17936;52.446;10.840;2023-02-01T06:11:32;19.45;;;2.85;;
31308;SDS011;17936;52.446;10.840;2023-02-01T06:13:58;20.70;;;3.00;;
31308;SDS011;17936;52.446;10.840;2023-02-01T06:16:24;14.48;;;3.10;;
31308;SDS011;17936;52.446;10.840;2023-02-01T06:18:49;15.18;;;3.05;;
31308;SDS011;17936;52.446;10.840;2023-02-01T06:21:15;18.08;;;2.85;;
31308;SDS011;17936;52.446;10.840;2023-02-01T06:23:48;19.63;;;3.20;;
31308;SDS011;17936;52.446;10.840;2023-02-01T06:26:20;10.52;;;2.72;;
31308;SDS011;17936;52.446;10.840;2023-02-01T06:28:46;17.42;;;3.17;;
31308;SDS011;17936;52.446;10.840;2023-02-01T06:31:11;14.23;;;2.95;;
31308;SDS011;17936;52.446;10.840;2023-02-01T06:33:37;14.23;;;2.67;;
31308;SDS011;17936;52.446;10.840;2023-02-01T06:36:03;19.50;;;3.35;;
31308;SDS011;17936;52.446;10.840;2023-02-01T06:38:31;14.13;;;3.22;;
31308;SDS011;17936;52.446;10.840;2023-02-01T06:40:59;14.82;;;2.72;;
31308;SDS011;17936;52.446;10.840;2023-02-01T06:43:26;18.52;;;2.78;;
31308;SDS011;17936;52.446;10.840;2023-02-01T06:45:52;15.77;;;3.15;;
31308;SDS011;17936;52.446;10.840;2023-02-01T06:48:18;16.48;;;3.40;;
31308;SDS011;17936;52.446;10.840;2023-02-01T06:50:44;8.35;;;2.38;;
31308;SDS011;17936;52.446;10.840;2023-02-01T06:53:10;15.43;;;2.67;;
31308;SDS011;17936;52.446;10.840;2023-02-01T06:55:35;27.13;;;3.67;;
31308;SDS011;17936;52.446;10.840;2023-02-01T06:58:01;11.20;;;2.83;;
31308;SDS011;17936;52.446;10.840;2023-02-01T07:00:27;14.40;;;2.42;;
31308;SDS011;17936;52.446;10.840;2023-02-01T07:02:53;13.85;;;2.95;;
31308;SDS011;17936;52.446;10.840;2023-02-01T07:05:20;13.25;;;2.78;;
31308;SDS011;17936;52.446;10.840;2023-02-01T07:07:45;8.25;;;2.67;;
31308;SDS011;17936;52.446;10.840;2023-02-01T07:10:11;8.68;;;2.47;;
31308;SDS011;17936;52.446;10.840;2023-02-01T07:12:37;12.07;;;3.58;;
31308;SDS011;17936;52.446;10.840;2023-02-01T07:15:03;11.75;;;2.53;;
31308;SDS011;17936;52.446;10.840;2023-02-01T07:17:29;9.88;;;2.42;;
31308;SDS011;17936;52.446;10.840;2023-02-01T07:19:55;7.75;;;2.20;;
31308;SDS011;17936;52.446;10.840;2023-02-01T07:22:20;8.98;;;2.00;;
31308;SDS011;17936;52.446;10.840;2023-02-01T07:24:46;10.77;;;2.63;;
31308;SDS011;17936;52.446;10.840;2023-02-01T07:27:12;10.73;;;2.40;;
31308;SDS011;17936;52.446;10.840;2023-02-01T07:29:38;11.13;;;2.05;;
31308;SDS011;17936;52.446;10.840;2023-02-01T07:32:03;11.48;;;2.17;;
31308;SDS011;17936;52.446;10.840;2023-02-01T07:34:29;9.00;;;2.05;;
31308;SDS011;17936;52.446;10.840;2023-02-01T07:36:55;7.40;;;2.33;;
31308;SDS011;17936;52.446;10.840;2023-02-01T07:39:21;9.70;;;1.77;;
31308;SDS011;17936;52.446;10.840;2023-02-01T07:41:47;10.68;;;2.45;;
31308;SDS011;17936;52.446;10.840;2023-02-01T07:44:12;9.70;;;2.13;;
31308;SDS011;17936;52.446;10.840;2023-02-01T07:46:38;18.75;;;2.65;;
31308;SDS011;17936;52.446;10.840;2023-02-01T07:49:04;11.63;;;2.05;;
31308;SDS011;17936;52.446;10.840;2023-02-01T07:51:30;10.85;;;2.13;;
31308;SDS011;17936;52.446;10.840;2023-02-01T07:53:56;13.90;;;2.05;;
31308;SDS011;17936;52.446;10.840;2023-02-01T07:56:22;8.65;;;1.80;;
31308;SDS011;17936;52.446;10.840;2023-02-01T07:58:49;9.20;;;1.77;;
31308;SDS011;17936;52.446;10.840;2023-02-01T08:01:19;4.80;;;1.65;;
31308;SDS011;17936;52.446;10.840;2023-02-01T08:03:50;11.63;;;2.05;;
31308;SDS011;17936;52.446;10.840;2023-02-01T08:06:20;5.72;;;1.50;;
31308;SDS011;17936;52.446;10.840;2023-02-01T08:08:47;9.05;;;2.00;;
31308;SDS011;17936;52.446;10.840;2023-02-01T08:11:13;10.88;;;1.92;;
31308;SDS011;17936;52.446;10.840;2023-02-01T08:13:40;7.13;;;1.52;;
31308;SDS011;17936;52.446;10.840;2023-02-01T08:16:06;8.48;;;1.70;;
31308;SDS011;17936;52.446;10.840;2023-02-01T08:18:33;12.02;;;2.90;;
31308;SDS011;17936;52.446;10.840;2023-02-01T08:21:06;6.90;;;1.70;;
31308;SDS011;17936;52.446;10.840;2023-02-01T08:23:37;6.80;;;1.40;;
31308;SDS011;17936;52.446;10.840;2023-02-01T08:26:07;8.48;;;2.20;;
31308;SDS011;17936;52.446;10.840;2023-02-01T08:28:35;8.18;;;1.80;;
31308;SDS011;17936;52.446;10.840;2023-02-01T08:31:04;9.13;;;1.77;;
31308;SDS011;17936;52.446;10.840;2023-02-01T08:33:34;7.72;;;1.50;;
31308;SDS011;17936;52.446;10.840;2023-02-01T08:36:02;5.97;;;1.88;;
31308;SDS011;17936;52.446;10.840;2023-02-01T08:38:32;12.40;;;1.75;;
31308;SDS011;17936;52.446;10.840;2023-02-01T08:41:03;6.32;;;1.25;;
31308;SDS011;17936;52.446;10.840;2023-02-01T08:43:30;8.00;;;1.63;;
31308;SDS011;17936;52.446;10.840;2023-02-01T08:45:55;7.53;;;1.90;;
31308;SDS011;17936;52.446;10.840;2023-02-01T08:48:21;8.30;;;2.25;;
31308;SDS011;17936;52.446;10.840;2023-02-01T08:50:46;10.30;;;2.10;;
31308;SDS011;17936;52.446;10.840;2023-02-01T08:53:12;13.05;;;2.30;;
31308;SDS011;17936;52.446;10.840;2023-02-01T08:55:38;11.65;;;1.85;;
31308;SDS011;17936;52.446;10.840;2023-02-01T08:58:04;16.35;;;1.80;;
31308;SDS011;17936;52.446;10.840;2023-02-01T09:00:30;8.65;;;2.22;;
31308;SDS011;17936;52.446;10.840;2023-02-01T09:02:55;10.20;;;1.88;;
31308;SDS011;17936;52.446;10.840;2023-02-01T09:05:21;7.53;;;1.90;;
31308;SDS011;17936;52.446;10.840;2023-02-01T09:07:48;9.40;;;1.60;;
31308;SDS011;17936;52.446;10.840;2023-02-01T09:10:13;8.73;;;1.45;;
31308;SDS011;17936;52.446;10.840;2023-02-01T09:12:39;6.82;;;1.63;;
31308;SDS011;17936;52.446;10.840;2023-02-01T09:15:04;11.63;;;1.98;;
31308;SDS011;17936;52.446;10.840;2023-02-01T09:17:32;7.53;;;1.60;;
31308;SDS011;17936;52.446;10.840;2023-02-01T09:19:57;11.40;;;1.63;;
31308;SDS011;17936;52.446;10.840;2023-02-01T09:22:23;7.40;;;1.65;;
31308;SDS011;17936;52.446;10.840;2023-02-01T09:24:49;6.57;;;1.67;;
31308;SDS011;17936;52.446;10.840;2023-02-01T09:27:14;9.70;;;1.48;;
31308;SDS011;17936;52.446;10.840;2023-02-01T09:29:40;5.72;;;1.38;;
31308;SDS011;17936;52.446;10.840;2023-02-01T09:32:06;13.48;;;1.80;;
31308;SDS011;17936;52.446;10.840;2023-02-01T09:34:32;12.85;;;2.28;;
31308;SDS011;17936;52.446;10.840;2023-02-01T09:36:58;9.10;;;1.60;;
31308;SDS011;17936;52.446;10.840;2023-02-01T09:39:24;8.05;;;1.63;;
31308;SDS011;17936;52.446;10.840;2023-02-01T09:44:48;12.10;;;1.92;;
31308;SDS011;17936;52.446;10.840;2023-02-01T09:47:31;8.75;;;1.48;;
31308;SDS011;17936;52.446;10.840;2023-02-01T09:50:11;10.40;;;1.50;;
31308;SDS011;17936;52.446;10.840;2023-02-01T09:53:06;4.85;;;1.35;;
31308;SDS011;17936;52.446;10.840;2023-02-01T09:55:49;6.57;;;1.15;;
31308;SDS011;17936;52.446;10.840;2023-02-01T09:58:27;2.17;;;0.70;;
31308;SDS011;17936;52.446;10.840;2023-02-01T10:00:56;6.03;;;1.17;;
31308;SDS011;17936;52.446;10.840;2023-02-01T10:03:24;6.55;;;0.88;;
31308;SDS011;17936;52.446;10.840;2023-02-01T10:17:20;7.80;;;1.45;;
31308;SDS011;17936;52.446;10.840;2023-02-01T10:22:43;6.68;;;1.65;;
31308;SDS011;17936;52.446;10.840;2023-02-01T10:25:25;8.73;;;1.70;;
31308;SDS011;17936;52.446;10.840;2023-02-01T10:27:55;19.50;;;1.90;;
31308;SDS011;17936;52.446;10.840;2023-02-01T10:30:25;11.18;;;2.25;;
31308;SDS011;17936;52.446;10.840;2023-02-01T10:33:14;7.30;;;1.85;;
31308;SDS011;17936;52.446;10.840;2023-02-01T10:35:43;12.60;;;2.15;;
31308;SDS011;17936;52.446;10.840;2023-02-01T10:38:21;14.05;;;2.78;;
31308;SDS011;17936;52.446;10.840;2023-02-01T10:40:51;12.13;;;2.35;;
31308;SDS011;17936;52.446;10.840;2023-02-01T10:43:19;11.75;;;2.13;;
31308;SDS011;17936;52.446;10.840;2023-02-01T10:45:46;12.25;;;2.60;;
31308;SDS011;17936;52.446;10.840;2023-02-01T10:48:11;14.18;;;3.13;;
31308;SDS011;17936;52.446;10.840;2023-02-01T10:53:31;9.80;;;1.80;;
31308;SDS011;17936;52.446;10.840;2023-02-01T10:56:09;9.77;;;2.17;;
31308;SDS011;17936;52.446;10.840;2023-02-01T10:58:36;13.37;;;1.97;;
31308;SDS011;17936;52.446;10.840;2023-02-01T11:01:14;8.80;;;2.10;;
31308;SDS011;17936;52.446;10.840;2023-02-01T11:03:56;14.20;;;2.28;;
31308;SDS011;17936;52.446;10.840;2023-02-01T11:06:26;7.50;;;1.90;;
31308;SDS011;17936;52.446;10.840;2023-02-01T11:09:08;12.57;;;2.22;;
31308;SDS011;17936;52.446;10.840;2023-02-01T11:14:35;11.10;;;2.05;;
31308;SDS011;17936;52.446;10.840;2023-02-01T11:17:19;15.48;;;2.40;;
31308;SDS011;17936;52.446;10.840;2023-02-01T11:19:58;17.58;;;3.67;;
31308;SDS011;17936;52.446;10.840;2023-02-01T11:22:24;16.73;;;2.53;;
31308;SDS011;17936;52.446;10.840;2023-02-01T11:24:52;13.82;;;2.65;;
31308;SDS011;17936;52.446;10.840;2023-02-01T11:27:19;14.02;;;2.03;;
31308;SDS011;17936;52.446;10.840;2023-02-01T11:29:49;14.57;;;2.50;;
31308;SDS011;17936;52.446;10.840;2023-02-01T11:32:17;10.80;;;2.30;;
31308;SDS011;17936;52.446;10.840;2023-02-01T11:34:48;18.80;;;2.28;;
31308;SDS011;17936;52.446;10.840;2023-02-01T11:37:22;15.48;;;2.40;;
31308;SDS011;17936;52.446;10.840;2023-02-01T11:39:55;11.15;;;2.60;;
31308;SDS011;17936;52.446;10.840;2023-02-01T11:42:22;13.15;;;2.38;;
31308;SDS011;17936;52.446;10.840;2023-02-01T11:44:48;14.52;;;2.75;;
31308;SDS011;17936;52.446;10.840;2023-02-01T11:47:21;13.05;;;2.72;;
31308;SDS011;17936;52.446;10.840;2023-02-01T11:49:59;11.20;;;2.35;;
31308;SDS011;17936;52.446;10.840;2023-02-01T11:58:39;7.38;;;1.60;;
31308;SDS011;17936;52.446;10.840;2023-02-01T12:07:01;12.63;;;2.45;;
31308;SDS011;17936;52.446;10.840;2023-02-01T12:12:52;11.20;;;2.55;;
31308;SDS011;17936;52.446;10.840;2023-02-01T12:15:44;11.38;;;2.35;;
31308;SDS011;17936;52.446;10.840;2023-02-01T12:18:50;14.70;;;3.13;;
31308;SDS011;17936;52.446;10.840;2023-02-01T12:27:33;18.13;;;2.95;;
31308;SDS011;17936;52.446;10.840;2023-02-01T12:32:40;17.15;;;2.83;;
31308;SDS011;17936;52.446;10.840;2023-02-01T12:35:29;16.17;;;2.90;;
31308;SDS011;17936;52.446;10.840;2023-02-01T12:38:51;11.25;;;2.13;;
31308;SDS011;17936;52.446;10.840;2023-02-01T12:46:37;13.00;;;3.03;;
31308;SDS011;17936;52.446;10.840;2023-02-01T12:49:13;11.70;;;2.53;;
31308;SDS011;17936;52.446;10.840;2023-02-01T12:52:01;14.23;;;2.65;;
31308;SDS011;17936;52.446;10.840;2023-02-01T12:54:36;14.32;;;3.13;;
31308;SDS011;17936;52.446;10.840;2023-02-01T12:57:25;19.05;;;3.60;;
31308;SDS011;17936;52.446;10.840;2023-02-01T13:00:04;17.33;;;3.38;;
31308;SDS011;17936;52.446;10.840;2023-02-01T13:02:42;13.80;;;2.75;;
31308;SDS011;17936;52.446;10.840;2023-02-01T13:05:19;12.68;;;2.40;;
31308;SDS011;17936;52.446;10.840;2023-02-01T13:07:49;11.43;;;2.42;;
31308;SDS011;17936;52.446;10.840;2023-02-01T13:13:03;11.07;;;2.78;;
31308;SDS011;17936;52.446;10.840;2023-02-01T13:15:36;12.52;;;3.40;;
31308;SDS011;17936;52.446;10.840;2023-02-01T13:18:09;12.95;;;2.78;;
31308;SDS011;17936;52.446;10.840;2023-02-01T13:20:47;9.65;;;2.05;;
31308;SDS011;17936;52.446;10.840;2023-02-01T13:23:30;13.55;;;2.63;;
31308;SDS011;17936;52.446;10.840;2023-02-01T13:26:01;8.35;;;1.83;;
31308;SDS011;17936;52.446;10.840;2023-02-01T13:28:42;10.75;;;2.17;;
31308;SDS011;17936;52.446;10.840;2023-02-01T13:37:20;16.63;;;3.00;;
31308;SDS011;17936;52.446;10.840;2023-02-01T13:40:17;10.45;;;2.90;;
31308;SDS011;17936;52.446;10.840;2023-02-01T13:42:51;13.48;;;2.65;;
31308;SDS011;17936;52.446;10.840;2023-02-01T13:45:20;7.72;;;2.40;;
31308;SDS011;17936;52.446;10.840;2023-02-01T13:47:50;14.40;;;3.53;;
31308;SDS011;17936;52.446;10.840;2023-02-01T13:50:28;9.23;;;2.40;;
31308;SDS011;17936;52.446;10.840;2023-02-01T13:55:36;11.82;;;2.35;;
31308;SDS011;17936;52.446;10.840;2023-02-01T13:58:15;10.50;;;1.92;;
31308;SDS011;17936;52.446;10.840;2023-02-01T14:00:47;7.90;;;1.77;;
31308;SDS011;17936;52.446;10.840;2023-02-01T14:03:19;6.47;;;0.82;;
31308;SDS011;17936;52.446;10.840;2023-02-01T14:08:13;2.25;;;0.60;;
31308;SDS011;17936;52.446;10.840;2023-02-01T14:10:49;7.57;;;1.52;;
31308;SDS011;17936;52.446;10.840;2023-02-01T14:13:27;2.72;;;0.70;;
31308;SDS011;17936;52.446;10.840;2023-02-01T14:16:10;0.87;;;0.37;;
31308;SDS011;17936;52.446;10.840;2023-02-01T14:23:41;2.97;;;0.40;;
31308;SDS011;17936;52.446;10.840;2023-02-01T14:26:11;2.55;;;0.82;;
31308;SDS011;17936;52.446;10.840;2023-02-01T14:28:40;4.20;;;1.20;;
31308;SDS011;17936;52.446;10.840;2023-02-01T14:31:28;2.42;;;1.02;;
31308;SDS011;17936;52.446;10.840;2023-02-01T14:34:13;0.52;;;0.30;;
31308;SDS011;17936;52.446;10.840;2023-02-01T14:36:50;3.05;;;0.60;;
31308;SDS011;17936;52.446;10.840;2023-02-01T14:39:24;3.10;;;0.60;;
31308;SDS011;17936;52.446;10.840;2023-02-01T14:41:57;1.88;;;0.55;;
31308;SDS011;17936;52.446;10.840;2023-02-01T14:44:27;0.52;;;0.25;;
31308;SDS011;17936;52.446;10.840;2023-02-01T14:49:33;3.20;;;0.55;;
31308;SDS011;17936;52.446;10.840;2023-02-01T14:52:04;4.70;;;0.82;;
31308;SDS011;17936;52.446;10.840;2023-02-01T14:54:35;3.95;;;0.55;;
31308;SDS011;17936;52.446;10.840;2023-02-01T14:57:02;2.72;;;0.60;;
31308;SDS011;17936;52.446;10.840;2023-02-01T14:59:29;5.88;;;0.73;;
31308;SDS011;17936;52.446;10.840;2023-02-01T15:01:58;2.80;;;0.90;;
31308;SDS011;17936;52.446;10.840;2023-02-01T15:04:26;4.00;;;0.70;;
31308;SDS011;17936;52.446;10.840;2023-02-01T15:06:56;1.80;;;0.80;;
31308;SDS011;17936;52.446;10.840;2023-02-01T15:09:29;4.85;;;0.98;;
31308;SDS011;17936;52.446;10.840;2023-02-01T15:15:03;4.20;;;0.80;;
31308;SDS011;17936;52.446;10.840;2023-02-01T15:17:29;3.50;;;0.55;;
31308;SDS011;17936;52.446;10.840;2023-02-01T15:22:27;5.93;;;0.60;;
31308;SDS011;17936;52.446;10.840;2023-02-01T15:24:57;6.55;;;0.93;;
31308;SDS011;17936;52.446;10.840;2023-02-01T15:27:24;3.10;;;0.68;;
31308;SDS011;17936;52.446;10.840;2023-02-01T15:29:51;3.58;;;0.90;;
31308;SDS011;17936;52.446;10.840;2023-02-01T15:32:30;2.35;;;0.80;;
31308;SDS011;17936;52.446;10.840;2023-02-01T15:34:57;2.95;;;0.68;;
31308;SDS011;17936;52.446;10.840;2023-02-01T15:37:25;4.57;;;0.57;;
31308;SDS011;17936;52.446;10.840;2023-02-01T15:40:04;1.02;;;0.38;;
31308;SDS011;17936;52.446;10.840;2023-02-01T15:42:46;1.60;;;0.50;;
31308;SDS011;17936;52.446;10.840;2023-02-01T15:45:27;3.15;;;0.70;;
31308;SDS011;17936;52.446;10.840;2023-02-01T15:47:56;2.13;;;0.57;;
31308;SDS011;17936;52.446;10.840;2023-02-01T15:50:23;5.82;;;0.95;;
31308;SDS011;17936;52.446;10.840;2023-02-01T15:52:51;8.20;;;0.98;;
31308;SDS011;17936;52.446;10.840;2023-02-01T15:55:21;4.38;;;1.10;;
31308;SDS011;17936;52.446;10.840;2023-02-01T15:57:59;8.18;;;1.92;;
31308;SDS011;17936;52.446;10.840;2023-02-01T16:02:57;4.10;;;0.82;;
31308;SDS011;17936;52.446;10.840;2023-02-01T16:05:37;4.72;;;1.20;;
31308;SDS011;17936;52.446;10.840;2023-02-01T16:08:20;4.00;;;1.00;;
31308;SDS011;17936;52.446;10.840;2023-02-01T16:10:49;5.18;;;1.20;;
31308;SDS011;17936;52.446;10.840;2023-02-01T16:13:17;4.82;;;0.93;;
31308;SDS011;17936;52.446;10.840;2023-02-01T16:15:43;6.03;;;0.88;;
31308;SDS011;17936;52.446;10.840;2023-02-01T16:18:09;5.15;;;1.38;;
31308;SDS011;17936;52.446;10.840;2023-02-01T16:20:36;4.13;;;1.42;;
31308;SDS011;17936;52.446;10.840;2023-02-01T16:23:04;6.00;;;1.42;;
31308;SDS011;17936;52.446;10.840;2023-02-01T16:25:30;10.13;;;2.50;;
31308;SDS011;17936;52.446;10.840;2023-02-01T16:27:56;11.73;;;2.90;;
31308;SDS011;17936;52.446;10.840;2023-02-01T16:30:22;8.82;;;2.10;;
31308;SDS011;17936;52.446;10.840;2023-02-01T16:32:51;10.23;;;2.00;;
31308;SDS011;17936;52.446;10.840;2023-02-01T16:35:23;8.30;;;2.05;;
31308;SDS011;17936;52.446;10.840;2023-02-01T16:37:51;12.10;;;3.03;;